Time;durP1;ratioP1;P1;durP2;ratioP2;P2;SDS_P1;SDS_P2;PMS_P1;PMS_P2;Temp;Humidity;BMP_temperature;BMP_pressure;BME280_temperature;BME280_humidity;BME280_pressure;Samples;Min_cycle;Max_cycle;Signal;HPM_P1;HPM_P2
2022/03/27 00:00:47;;;;;;;34.40;18.10;;;9.60;99.90;;;;;;5031596;28;20449;-73
2022/03/27 00:03:14;;;;;;;35.63;19.17;;;9.60;99.90;;;;;;5031317;28;20483;-73
2022/03/27 00:05:40;;;;;;;32.83;18.30;;;9.60;99.90;;;;;;5031346;28;20460;-73
2022/03/27 00:08:09;;;;;;;28.83;18.03;;;9.50;99.90;;;;;;5031347;28;20473;-73
2022/03/27 00:13:17;;;;;;;39.90;18.07;;;9.50;99.90;;;;;;5030894;28;20488;-73
2022/03/27 00:15:43;;;;;;;29.40;17.73;;;9.50;99.90;;;;;;5031234;28;20503;-73
2022/03/27 00:18:11;;;;;;;29.43;17.10;;;9.40;99.90;;;;;;5031132;28;20461;-73
2022/03/27 00:20:38;;;;;;;35.50;17.80;;;9.40;99.90;;;;;;5023586;28;20501;-73
2022/03/27 00:23:04;;;;;;;30.10;18.00;;;9.40;99.90;;;;;;5011894;28;20516;-73
2022/03/27 00:25:31;;;;;;;34.80;17.87;;;9.30;99.90;;;;;;5011072;28;20923;-73
2022/03/27 00:27:58;;;;;;;30.80;17.23;;;9.30;99.90;;;;;;5015198;28;20981;-73
2022/03/27 00:30:25;;;;;;;30.23;17.33;;;9.20;99.90;;;;;;5031010;28;20499;-73
2022/03/27 00:32:52;;;;;;;33.80;17.90;;;9.20;99.90;;;;;;5031238;28;20539;-73
2022/03/27 00:35:20;;;;;;;33.67;18.73;;;9.20;99.90;;;;;;5030498;28;21016;-73
2022/03/27 00:37:47;;;;;;;33.20;18.50;;;9.20;99.90;;;;;;5031056;28;20461;-73
2022/03/27 00:40:15;;;;;;;31.40;18.30;;;9.10;99.90;;;;;;5030844;28;20507;-73
2022/03/27 00:42:42;;;;;;;33.43;18.20;;;9.10;99.90;;;;;;5030791;28;20461;-73
2022/03/27 00:45:09;;;;;;;34.23;18.07;;;9.00;99.90;;;;;;5030443;28;20461;-73
2022/03/27 00:47:36;;;;;;;30.80;16.67;;;9.00;99.90;;;;;;5030932;28;20466;-73
2022/03/27 00:50:03;;;;;;;29.70;17.63;;;9.00;99.90;;;;;;5030155;28;20453;-73
2022/03/27 00:52:31;;;;;;;28.20;17.50;;;9.00;99.90;;;;;;5030297;28;20497;-73
2022/03/27 00:54:58;;;;;;;35.50;18.23;;;9.00;99.90;;;;;;5030801;28;20449;-73
2022/03/27 00:57:25;;;;;;;31.93;17.83;;;9.00;99.90;;;;;;5030506;28;20491;-73
2022/03/27 00:59:51;;;;;;;28.90;16.93;;;9.00;99.90;;;;;;5030615;28;20925;-73
2022/03/27 01:02:18;;;;;;;30.03;17.97;;;9.00;99.90;;;;;;5030324;28;20503;-72
2022/03/27 01:04:46;;;;;;;38.63;18.07;;;9.00;99.90;;;;;;5030657;28;20879;-73
2022/03/27 01:07:17;;;;;;;30.17;19.10;;;9.00;99.90;;;;;;5030736;28;20481;-73
2022/03/27 01:09:44;;;;;;;27.47;17.00;;;9.00;99.90;;;;;;5030687;28;20461;-73
2022/03/27 01:12:20;;;;;;;37.10;19.60;;;9.00;99.90;;;;;;5030500;28;20857;-73
2022/03/27 01:14:48;;;;;;;32.43;17.67;;;8.90;99.90;;;;;;5030192;28;20454;-73
2022/03/27 01:17:17;;;;;;;29.90;17.63;;;9.00;99.90;;;;;;5030216;28;20505;-73
2022/03/27 01:19:46;;;;;;;30.70;17.60;;;8.90;99.90;;;;;;5030411;28;20454;-73
2022/03/27 01:22:15;;;;;;;28.03;17.83;;;9.00;99.90;;;;;;5010717;28;20452;-73
2022/03/27 01:24:42;;;;;;;29.07;17.30;;;9.00;99.90;;;;;;5010536;28;20504;-73
2022/03/27 01:27:09;;;;;;;40.87;18.50;;;9.00;99.90;;;;;;5010235;28;21005;-73
2022/03/27 01:29:36;;;;;;;32.13;19.10;;;9.00;99.90;;;;;;5027874;28;20449;-73
2022/03/27 01:32:04;;;;;;;27.90;17.10;;;9.00;99.90;;;;;;5030044;28;20491;-73
2022/03/27 01:34:32;;;;;;;29.47;18.10;;;9.00;99.90;;;;;;5029838;28;20448;-73
2022/03/27 01:37:03;;;;;;;31.63;18.47;;;9.00;99.90;;;;;;5030378;28;20479;-73
2022/03/27 01:39:31;;;;;;;30.73;17.67;;;9.00;99.90;;;;;;5030477;28;20450;-73
2022/03/27 01:41:57;;;;;;;36.63;19.20;;;8.90;99.90;;;;;;5030480;28;20445;-73
2022/03/27 01:44:24;;;;;;;30.73;17.70;;;8.90;99.90;;;;;;5030280;28;20445;-73
2022/03/27 01:46:50;;;;;;;27.43;18.00;;;8.80;99.90;;;;;;5030174;28;20872;-73
2022/03/27 01:49:19;;;;;;;37.80;19.23;;;8.80;99.90;;;;;;5029998;28;20449;-73
2022/03/27 01:51:47;;;;;;;32.30;18.30;;;8.80;99.90;;;;;;5030221;28;20580;-73
2022/03/27 01:54:14;;;;;;;29.40;18.43;;;8.80;99.90;;;;;;5030025;28;20453;-73
2022/03/27 01:56:42;;;;;;;32.67;18.70;;;8.80;99.90;;;;;;5030335;28;20508;-73
2022/03/27 01:59:10;;;;;;;27.73;17.73;;;8.80;99.90;;;;;;5030153;28;20515;-73
2022/03/27 02:01:37;;;;;;;33.13;16.60;;;8.70;99.90;;;;;;5031941;28;20452;-73
2022/03/27 02:04:05;;;;;;;35.93;17.37;;;8.70;99.90;;;;;;5033626;28;20461;-72
2022/03/27 02:06:32;;;;;;;33.33;18.43;;;8.70;99.90;;;;;;5033589;28;20507;-73
2022/03/27 02:08:59;;;;;;;31.13;17.53;;;8.60;99.90;;;;;;5033548;28;20555;-73
2022/03/27 02:11:27;;;;;;;37.17;20.13;;;8.60;99.90;;;;;;5033907;28;20485;-72
2022/03/27 02:13:55;;;;;;;40.33;17.70;;;8.60;99.90;;;;;;5033250;28;20453;-73
2022/03/27 02:16:22;;;;;;;31.10;17.73;;;8.60;99.90;;;;;;5033622;28;20682;-73
2022/03/27 02:18:48;;;;;;;36.70;17.70;;;8.60;99.90;;;;;;5033385;28;20477;-73
2022/03/27 02:21:15;;;;;;;32.10;18.40;;;8.60;99.90;;;;;;5021044;28;20458;-73
2022/03/27 02:23:42;;;;;;;31.67;18.33;;;8.60;99.90;;;;;;5013746;28;20450;-72
2022/03/27 02:26:08;;;;;;;27.57;16.47;;;8.60;99.90;;;;;;5013566;28;21186;-72
2022/03/27 02:28:35;;;;;;;33.60;17.83;;;8.60;99.90;;;;;;5022052;28;20473;-73
2022/03/27 02:31:03;;;;;;;29.63;17.77;;;8.60;99.90;;;;;;5033164;28;20483;-72
2022/03/27 02:33:30;;;;;;;30.77;18.07;;;8.60;99.90;;;;;;5033137;28;20449;-72
2022/03/27 02:35:57;;;;;;;33.53;17.27;;;8.60;99.90;;;;;;5033162;28;20492;-73
2022/03/27 02:38:24;;;;;;;29.27;18.10;;;8.60;99.90;;;;;;5033022;28;20481;-72
2022/03/27 02:40:50;;;;;;;31.60;17.83;;;8.60;99.90;;;;;;5032836;28;20453;-73
2022/03/27 02:43:17;;;;;;;27.80;16.93;;;8.60;99.90;;;;;;5032725;28;20449;-73
2022/03/27 02:45:44;;;;;;;30.50;17.20;;;8.60;99.90;;;;;;5032873;28;20985;-73
2022/03/27 02:48:12;;;;;;;32.60;18.83;;;8.60;99.90;;;;;;5032784;28;21047;-72
2022/03/27 02:50:40;;;;;;;35.13;17.90;;;8.60;99.90;;;;;;5032899;28;20450;-73
2022/03/27 02:53:07;;;;;;;32.53;18.63;;;8.60;99.90;;;;;;5032598;28;20496;-73
2022/03/27 02:55:34;;;;;;;32.83;18.67;;;8.50;99.90;;;;;;5032613;28;20445;-72
2022/03/27 02:58:01;;;;;;;37.50;18.63;;;8.50;99.90;;;;;;5032609;28;20477;-72
2022/03/27 03:00:29;;;;;;;31.70;18.50;;;8.50;99.90;;;;;;5032847;28;20507;-73
2022/03/27 03:02:56;;;;;;;34.80;16.87;;;8.50;99.90;;;;;;5032808;28;20441;-72
2022/03/27 03:05:24;;;;;;;30.97;17.67;;;8.50;99.90;;;;;;5032426;28;20464;-72
2022/03/27 03:07:51;;;;;;;33.50;18.07;;;8.50;99.90;;;;;;5032594;28;20485;-73
2022/03/27 03:10:19;;;;;;;36.13;18.57;;;8.40;99.90;;;;;;5032424;28;20449;-72
2022/03/27 03:12:45;;;;;;;32.40;18.80;;;8.40;99.90;;;;;;5031404;28;21013;-72
2022/03/27 03:15:13;;;;;;;34.23;18.80;;;8.40;99.90;;;;;;5032259;28;20499;-73
2022/03/27 03:17:40;;;;;;;34.73;18.03;;;8.30;99.90;;;;;;5032535;28;20539;-73
2022/03/27 03:20:07;;;;;;;30.67;18.10;;;8.30;99.90;;;;;;5032057;28;20457;-72
2022/03/27 03:22:37;;;;;;;30.77;17.40;;;8.30;99.90;;;;;;5032352;28;20445;-73
2022/03/27 03:25:05;;;;;;;39.63;19.80;;;8.40;99.90;;;;;;5031751;28;20930;-73
2022/03/27 03:27:31;;;;;;;33.40;19.07;;;8.30;99.90;;;;;;5032132;28;20477;-72
2022/03/27 03:29:59;;;;;;;37.53;19.67;;;8.30;99.90;;;;;;5032136;28;20453;-73
2022/03/27 03:32:26;;;;;;;34.07;19.27;;;8.30;99.90;;;;;;5032136;28;20516;-72
2022/03/27 03:34:53;;;;;;;42.13;19.13;;;8.30;99.90;;;;;;5031608;28;20476;-73
2022/03/27 03:37:20;;;;;;;38.03;19.13;;;8.30;99.90;;;;;;5032181;28;20473;-73
2022/03/27 03:39:48;;;;;;;38.77;18.90;;;8.20;99.90;;;;;;5032290;28;20468;-73
2022/03/27 03:42:15;;;;;;;35.30;19.20;;;8.20;99.90;;;;;;5031920;28;21158;-73
2022/03/27 03:44:43;;;;;;;29.43;18.10;;;8.20;99.90;;;;;;5031437;28;20958;-73
2022/03/27 03:47:10;;;;;;;33.60;19.60;;;8.20;99.90;;;;;;5031539;28;20477;-72
2022/03/27 03:49:37;;;;;;;32.70;18.23;;;8.20;99.90;;;;;;5031745;28;20561;-73
2022/03/27 03:52:05;;;;;;;35.20;19.73;;;8.20;99.90;;;;;;5031728;28;20516;-73
2022/03/27 03:54:31;;;;;;;36.47;19.70;;;8.10;99.90;;;;;;5031340;28;20450;-72
2022/03/27 03:56:59;;;;;;;35.20;18.27;;;8.20;99.90;;;;;;5031445;28;20449;-72
2022/03/27 03:59:26;;;;;;;41.60;19.47;;;8.10;99.90;;;;;;5031468;28;20461;-72
2022/03/27 04:01:52;;;;;;;38.57;19.47;;;8.10;99.90;;;;;;5031503;28;20677;-73
2022/03/27 04:04:19;;;;;;;32.77;19.53;;;8.10;99.90;;;;;;5031323;28;20437;-72
2022/03/27 04:06:46;;;;;;;36.57;19.67;;;8.10;99.90;;;;;;5031482;28;20485;-72
2022/03/27 04:09:13;;;;;;;40.43;20.23;;;8.10;99.90;;;;;;5031580;28;20601;-72
2022/03/27 04:11:40;;;;;;;34.43;18.63;;;8.10;99.90;;;;;;5031250;28;20539;-72
2022/03/27 04:14:08;;;;;;;41.70;20.30;;;8.00;99.90;;;;;;5031106;28;20453;-73
2022/03/27 04:16:34;;;;;;;32.97;18.27;;;8.00;99.90;;;;;;5031292;28;20453;-73
2022/03/27 04:19:01;;;;;;;34.67;19.57;;;8.00;99.90;;;;;;5031391;28;20473;-73
2022/03/27 04:21:28;;;;;;;33.50;19.93;;;7.90;99.90;;;;;;5017165;28;20457;-72
2022/03/27 04:23:54;;;;;;;35.33;18.80;;;7.90;99.90;;;;;;5011225;28;20453;-72
2022/03/27 04:26:21;;;;;;;37.53;20.43;;;7.90;99.90;;;;;;5011119;28;20859;-73
2022/03/27 04:28:47;;;;;;;38.67;19.90;;;7.80;99.90;;;;;;5021496;28;20461;-73
2022/03/27 04:31:17;;;;;;;39.17;20.53;;;7.80;99.90;;;;;;5030952;28;21012;-73
2022/03/27 04:33:44;;;;;;;33.77;18.83;;;7.70;99.90;;;;;;5030619;28;20492;-73
2022/03/27 04:36:11;;;;;;;31.60;18.37;;;7.70;99.90;;;;;;5030698;28;20951;-73
2022/03/27 04:38:37;;;;;;;34.90;19.80;;;7.70;99.90;;;;;;5030612;28;20531;-72
2022/03/27 04:41:04;;;;;;;36.10;18.90;;;7.60;99.90;;;;;;5030751;28;20957;-73
2022/03/27 04:43:32;;;;;;;43.90;20.13;;;7.50;99.90;;;;;;5030541;28;20953;-72
2022/03/27 04:45:59;;;;;;;33.90;18.77;;;7.50;99.90;;;;;;5031220;28;20452;-73
2022/03/27 04:48:27;;;;;;;36.43;19.90;;;7.50;99.90;;;;;;5030818;28;20520;-73
2022/03/27 04:50:54;;;;;;;40.40;20.53;;;7.50;99.90;;;;;;5030693;28;20504;-72
2022/03/27 04:53:21;;;;;;;42.87;19.80;;;7.50;99.90;;;;;;5030108;28;21083;-72
2022/03/27 04:55:48;;;;;;;34.37;19.50;;;7.50;99.90;;;;;;5011119;28;20496;-72
2022/03/27 04:58:16;;;;;;;42.17;21.40;;;7.50;99.90;;;;;;5010892;28;20484;-72
2022/03/27 05:00:43;;;;;;;40.30;20.17;;;7.50;99.90;;;;;;5010915;28;20454;-73
2022/03/27 05:03:11;;;;;;;41.03;21.03;;;7.40;99.90;;;;;;5010819;28;20450;-73
2022/03/27 05:05:39;;;;;;;33.67;19.50;;;7.50;99.90;;;;;;5010975;28;20449;-72
2022/03/27 05:08:06;;;;;;;37.37;20.67;;;7.40;99.90;;;;;;5010593;28;20482;-72
2022/03/27 05:10:33;;;;;;;38.47;21.60;;;7.40;99.90;;;;;;5010969;28;20500;-72
2022/03/27 05:13:00;;;;;;;37.13;19.80;;;7.40;99.90;;;;;;5010874;28;20481;-73
2022/03/27 05:15:27;;;;;;;34.53;19.30;;;7.50;99.90;;;;;;5010922;28;20516;-72
2022/03/27 05:17:56;;;;;;;37.97;21.30;;;7.50;99.90;;;;;;5010586;28;20480;-73
2022/03/27 05:20:23;;;;;;;38.40;20.77;;;7.60;99.90;;;;;;5015588;28;21043;-72
2022/03/27 05:22:51;;;;;;;42.47;20.73;;;7.60;99.90;;;;;;5030266;28;20934;-72
2022/03/27 05:25:18;;;;;;;40.30;21.10;;;7.60;99.90;;;;;;5030270;28;21077;-72
2022/03/27 05:27:47;;;;;;;34.87;20.27;;;7.50;99.90;;;;;;5028271;28;20496;-72
2022/03/27 05:30:16;;;;;;;37.57;19.77;;;7.50;99.90;;;;;;5010747;28;20646;-73
2022/03/27 05:32:43;;;;;;;35.43;19.83;;;7.50;99.90;;;;;;5010480;28;20897;-71
2022/03/27 05:35:10;;;;;;;41.50;21.40;;;7.50;99.90;;;;;;5010188;28;20537;-71
2022/03/27 05:37:38;;;;;;;47.10;21.23;;;7.50;99.90;;;;;;5013820;28;21281;-71
2022/03/27 05:40:09;;;;;;;47.43;22.13;;;7.50;99.90;;;;;;5014293;28;20586;-71
2022/03/27 05:42:35;;;;;;;36.03;20.43;;;7.60;99.90;;;;;;5014417;28;20804;-71
2022/03/27 05:45:03;;;;;;;38.83;20.80;;;7.60;99.90;;;;;;5013872;28;20803;-73
2022/03/27 05:47:29;;;;;;;38.63;19.60;;;7.70;99.90;;;;;;5014398;28;20474;-74
2022/03/27 05:49:56;;;;;;;37.30;20.43;;;7.80;99.90;;;;;;5014479;28;20512;-71
2022/03/27 05:52:23;;;;;;;37.77;20.57;;;8.00;99.90;;;;;;5014152;28;20481;-71
2022/03/27 05:54:50;;;;;;;40.37;19.47;;;8.30;99.90;;;;;;5025900;28;20453;-71
2022/03/27 05:57:19;;;;;;;34.80;20.77;;;8.50;99.90;;;;;;5033764;28;20469;-71
2022/03/27 05:59:45;;;;;;;32.50;19.27;;;8.80;99.90;;;;;;5033623;28;20453;-71
2022/03/27 06:02:13;;;;;;;30.67;18.80;;;9.00;99.90;;;;;;5034143;28;20449;-71
2022/03/27 06:04:39;;;;;;;35.13;18.90;;;9.20;99.90;;;;;;5033514;28;20453;-71
2022/03/27 06:07:06;;;;;;;38.13;21.10;;;9.40;99.90;;;;;;5033750;28;20477;-71
2022/03/27 06:09:33;;;;;;;37.23;19.67;;;9.60;99.90;;;;;;5033643;28;20918;-71
2022/03/27 06:12:00;;;;;;;35.90;18.70;;;9.80;99.90;;;;;;5033474;28;20449;-71
2022/03/27 06:14:29;;;;;;;45.07;20.80;;;9.90;99.90;;;;;;5033434;28;20906;-71
2022/03/27 06:16:56;;;;;;;43.00;21.80;;;10.20;99.90;;;;;;5033450;28;20499;-71
2022/03/27 06:19:22;;;;;;;39.60;19.83;;;10.50;99.90;;;;;;5033418;28;20933;-71
2022/03/27 06:21:49;;;;;;;36.10;20.93;;;10.70;99.90;;;;;;5016412;28;20535;-71
2022/03/27 06:24:16;;;;;;;34.63;20.10;;;10.90;99.90;;;;;;5013249;28;20885;-71
2022/03/27 06:26:43;;;;;;;38.73;19.87;;;11.10;99.90;;;;;;5013407;28;20446;-72
2022/03/27 06:29:10;;;;;;;41.90;20.10;;;11.20;99.90;;;;;;5026884;28;20535;-74
2022/03/27 06:31:38;;;;;;;40.03;19.93;;;11.50;99.90;;;;;;5033447;28;20510;-74
2022/03/27 06:34:06;;;;;;;31.63;19.00;;;11.80;99.90;;;;;;5032892;28;20573;-74
2022/03/27 06:36:32;;;;;;;35.57;19.00;;;12.10;99.90;;;;;;5033024;28;20918;-77
2022/03/27 06:38:59;;;;;;;39.37;20.10;;;12.30;99.90;;;;;;5033300;28;20477;-74
2022/03/27 06:41:26;;;;;;;34.10;19.43;;;12.60;99.90;;;;;;5033399;28;20519;-74
2022/03/27 06:43:53;;;;;;;34.97;18.60;;;12.90;99.90;;;;;;5032895;28;20449;-74
2022/03/27 06:46:20;;;;;;;34.80;18.77;;;13.00;99.90;;;;;;5033068;28;20548;-74
2022/03/27 06:48:50;;;;;;;34.13;19.00;;;13.00;99.90;;;;;;5031594;28;20477;-77
2022/03/27 06:51:18;;;;;;;34.33;19.00;;;13.20;99.90;;;;;;5032750;28;20929;-74
2022/03/27 06:53:45;;;;;;;33.80;19.30;;;13.40;99.90;;;;;;5031990;28;20519;-74
2022/03/27 06:56:12;;;;;;;36.67;20.37;;;13.60;99.90;;;;;;5032626;28;20834;-74
2022/03/27 06:58:39;;;;;;;34.20;19.73;;;13.80;99.90;;;;;;5032683;28;20523;-74
2022/03/27 07:03:51;;;;;;;32.43;20.13;;;14.00;99.90;;;;;;5032488;28;20472;-73
2022/03/27 07:06:18;;;;;;;33.77;19.60;;;14.20;99.90;;;;;;5032387;28;20515;-73
2022/03/27 07:08:44;;;;;;;34.27;19.57;;;14.30;99.90;;;;;;5032613;28;20468;-73
2022/03/27 07:11:12;;;;;;;33.30;20.40;;;14.40;99.90;;;;;;5032664;28;20484;-73
2022/03/27 07:13:39;;;;;;;29.73;18.57;;;14.50;99.90;;;;;;5032280;28;20529;-73
2022/03/27 07:16:05;;;;;;;33.60;20.53;;;14.30;99.90;;;;;;5032312;28;20457;-73
2022/03/27 07:18:32;;;;;;;32.40;19.33;;;14.40;99.90;;;;;;5032465;28;20503;-73
2022/03/27 07:21:00;;;;;;;35.67;19.53;;;14.20;99.90;;;;;;5032136;28;20507;-72
2022/03/27 07:23:27;;;;;;;35.20;19.80;;;14.10;99.90;;;;;;5032012;28;20792;-73
2022/03/27 07:25:56;;;;;;;30.93;19.77;;;14.10;99.90;;;;;;5032462;28;20453;-73
2022/03/27 07:28:23;;;;;;;35.00;21.10;;;14.00;99.90;;;;;;5032184;28;20473;-72
2022/03/27 07:30:50;;;;;;;34.10;21.03;;;13.90;99.90;;;;;;5031835;28;20946;-72
2022/03/27 07:33:17;;;;;;;32.37;20.00;;;13.90;99.90;;;;;;5031753;28;20488;-73
2022/03/27 07:35:44;;;;;;;34.10;20.10;;;13.90;99.90;;;;;;5031768;28;20457;-73
2022/03/27 07:38:13;;;;;;;37.77;20.40;;;14.00;99.90;;;;;;5032200;28;20473;-73
2022/03/27 07:40:39;;;;;;;40.60;21.50;;;14.20;99.90;;;;;;5031925;28;20460;-73
2022/03/27 07:43:06;;;;;;;32.10;19.73;;;14.30;99.90;;;;;;5031689;28;20808;-73
2022/03/27 07:45:35;;;;;;;34.20;20.23;;;14.60;99.90;;;;;;5031836;28;20823;-73
2022/03/27 07:48:02;;;;;;;34.67;19.83;;;14.80;99.90;;;;;;5031837;28;20477;-73
2022/03/27 07:50:30;;;;;;;31.87;20.60;;;14.90;99.90;;;;;;5031838;28;20449;-75
2022/03/27 07:52:57;;;;;;;32.07;19.50;;;15.00;99.90;;;;;;5031285;28;20485;-73
2022/03/27 07:55:25;;;;;;;36.97;21.63;;;15.20;99.90;;;;;;5031513;28;20453;-73
2022/03/27 07:57:52;;;;;;;36.60;20.90;;;15.40;99.90;;;;;;5031399;28;20469;-73
2022/03/27 08:00:19;;;;;;;37.60;20.37;;;15.60;99.90;;;;;;5030965;28;21016;-72
2022/03/27 08:02:46;;;;;;;32.40;19.77;;;15.60;99.90;;;;;;5031327;28;20830;-73
2022/03/27 08:05:13;;;;;;;34.13;20.80;;;15.80;99.90;;;;;;5031276;28;20481;-73
2022/03/27 08:07:40;;;;;;;40.50;20.70;;;16.00;99.90;;;;;;5031720;28;20523;-73
2022/03/27 08:10:08;;;;;;;29.20;18.67;;;16.20;99.90;;;;;;5031353;28;20453;-73
2022/03/27 08:12:36;;;;;;;34.47;20.13;;;16.40;99.90;;;;;;5031256;28;20445;-73
2022/03/27 08:15:04;;;;;;;30.80;19.37;;;16.60;99.90;;;;;;5031411;28;20457;-73
2022/03/27 08:17:31;;;;;;;29.33;19.10;;;16.80;99.90;;;;;;5031124;28;20473;-73
2022/03/27 08:19:57;;;;;;;32.60;20.40;;;17.00;99.90;;;;;;5029521;28;20487;-73
2022/03/27 08:22:25;;;;;;;36.00;19.37;;;17.30;99.90;;;;;;5011401;28;20500;-73
2022/03/27 08:24:52;;;;;;;33.00;19.97;;;17.30;99.90;;;;;;5011092;28;20893;-73
2022/03/27 08:27:19;;;;;;;29.77;19.30;;;17.30;99.90;;;;;;5010859;28;20453;-73
2022/03/27 08:29:48;;;;;;;34.80;20.60;;;17.30;99.90;;;;;;5029828;28;20424;-73
2022/03/27 08:32:16;;;;;;;34.53;20.50;;;17.40;99.90;;;;;;5031111;28;20453;-73
2022/03/27 08:34:44;;;;;;;33.90;21.10;;;17.50;99.90;;;;;;5030198;28;21047;-73
2022/03/27 08:37:13;;;;;;;34.77;19.10;;;17.70;99.90;;;;;;5030661;28;20949;-73
2022/03/27 08:39:41;;;;;;;32.00;18.87;;;18.00;99.90;;;;;;5031228;28;20464;-73
2022/03/27 08:42:08;;;;;;;27.13;17.97;;;18.20;99.90;;;;;;5031038;28;20786;-73
2022/03/27 08:44:37;;;;;;;27.33;19.03;;;18.30;99.90;;;;;;5030908;28;20423;-73
2022/03/27 08:47:14;;;;;;;27.73;18.90;;;18.40;99.90;;;;;;5030703;28;20490;-73
2022/03/27 08:49:47;;;;;;;27.77;18.27;;;18.40;99.90;;;;;;5030973;28;20482;-73
2022/03/27 08:52:35;;;;;;;30.13;18.67;;;18.60;99.90;;;;;;5032223;28;20412;-73
2022/03/27 08:55:06;;;;;;;33.47;18.83;;;18.70;99.90;;;;;;5030597;28;20464;-73
2022/03/27 08:57:47;;;;;;;27.90;17.40;;;18.90;99.90;;;;;;5030544;28;20451;-73
2022/03/27 09:00:15;;;;;;;30.43;17.63;;;19.10;99.90;;;;;;5030573;28;20432;-73
2022/03/27 09:02:42;;;;;;;22.67;16.53;;;19.20;99.90;;;;;;5030870;28;20424;-73
2022/03/27 09:05:09;;;;;;;27.33;16.67;;;19.30;99.90;;;;;;5030379;28;20938;-73
2022/03/27 09:07:36;;;;;;;25.00;16.77;;;19.60;99.90;;;;;;5030477;28;21013;-73
2022/03/27 09:10:08;;;;;;;30.60;16.30;;;19.50;99.90;;;;;;5030478;28;20455;-73
2022/03/27 09:12:35;;;;;;;29.23;17.17;;;19.70;99.90;;;;;;5033982;28;20457;-73
2022/03/27 09:15:03;;;;;;;26.00;17.37;;;19.80;99.90;;;;;;5034553;28;20485;-73
2022/03/27 09:17:29;;;;;;;43.20;18.60;;;20.00;99.90;;;;;;5034474;28;20526;-73
2022/03/27 09:19:57;;;;;;;25.13;17.23;;;20.10;99.90;;;;;;5034379;28;20475;-73
2022/03/27 09:22:30;;;;;;;22.90;16.30;;;20.40;99.90;;;;;;5034544;28;20511;-73
2022/03/27 09:25:00;;;;;;;26.07;16.70;;;20.30;99.90;;;;;;5034195;28;20806;-73
2022/03/27 09:27:30;;;;;;;22.87;16.23;;;20.20;99.90;;;;;;5034476;28;20957;-73
2022/03/27 09:29:59;;;;;;;22.33;16.27;;;20.50;99.90;;;;;;5015199;28;20548;-73
2022/03/27 09:32:27;;;;;;;22.97;15.93;;;20.30;99.90;;;;;;5014691;28;20428;-73
2022/03/27 09:35:04;;;;;;;26.93;17.00;;;20.30;99.90;;;;;;5013838;28;20489;-73
2022/03/27 09:37:32;;;;;;;18.87;15.17;;;20.50;99.90;;;;;;5014535;28;20469;-73
2022/03/27 09:39:59;;;;;;;24.37;16.43;;;20.50;99.90;;;;;;5014532;28;20428;-73
2022/03/27 09:42:26;;;;;;;26.43;16.17;;;20.50;99.90;;;;;;5014517;28;20425;-73
2022/03/27 09:45:11;;;;;;;30.87;17.17;;;20.20;99.90;;;;;;5014153;28;20631;-73
2022/03/27 09:47:39;;;;;;;28.77;18.33;;;19.70;99.90;;;;;;5014419;28;20462;-73
2022/03/27 09:50:08;;;;;;;30.17;19.43;;;19.70;99.90;;;;;;5014308;28;20492;-73
2022/03/27 09:52:36;;;;;;;28.93;19.57;;;19.90;99.90;;;;;;5014160;28;20497;-73
2022/03/27 09:55:07;;;;;;;34.73;19.23;;;20.10;99.90;;;;;;5013846;28;20486;-73
2022/03/27 09:57:35;;;;;;;31.20;20.10;;;20.10;99.90;;;;;;5013932;28;20849;-73
2022/03/27 10:00:15;;;;;;;27.60;19.20;;;20.00;99.90;;;;;;5014250;28;20508;-73
2022/03/27 10:02:43;;;;;;;34.33;20.10;;;20.10;99.90;;;;;;5014184;28;20454;-73
2022/03/27 10:05:13;;;;;;;30.57;18.87;;;20.30;99.90;;;;;;5013871;28;20454;-73
2022/03/27 10:07:42;;;;;;;29.13;20.07;;;20.60;99.90;;;;;;5014033;28;20768;-73
2022/03/27 10:10:11;;;;;;;32.23;20.83;;;20.50;99.90;;;;;;5014034;28;20499;-73
2022/03/27 10:12:39;;;;;;;29.37;19.10;;;20.60;99.90;;;;;;5013811;28;20449;-73
2022/03/27 10:15:08;;;;;;;32.13;20.20;;;20.90;99.90;;;;;;5013311;28;20478;-73
2022/03/27 10:17:39;;;;;;;30.03;19.97;;;21.20;99.90;;;;;;5013845;28;20488;-73
2022/03/27 10:20:08;;;;;;;30.17;20.40;;;21.70;99.90;;;;;;5016367;28;20465;-73
2022/03/27 10:22:41;;;;;;;33.63;20.80;;;21.60;99.90;;;;;;5033247;28;20472;-73
2022/03/27 10:25:09;;;;;;;39.67;22.73;;;21.20;99.90;;;;;;5033157;28;20441;-73
2022/03/27 10:27:37;;;;;;;33.10;20.33;;;20.60;99.90;;;;;;5032231;28;20854;-73
2022/03/27 10:30:05;;;;;;;31.00;21.43;;;20.70;99.90;;;;;;5013470;28;20458;-73
2022/03/27 10:32:33;;;;;;;34.23;21.07;;;20.80;99.90;;;;;;5013583;28;20454;-73
2022/03/27 10:35:13;;;;;;;35.10;21.83;;;20.70;99.90;;;;;;5012472;28;20490;-73
2022/03/27 10:37:48;;;;;;;34.17;22.10;;;20.20;99.90;;;;;;5013648;28;20477;-73
2022/03/27 10:40:20;;;;;;;38.77;21.97;;;20.20;99.90;;;;;;5013185;28;20507;-73
2022/03/27 10:42:52;;;;;;;33.53;20.80;;;20.50;99.90;;;;;;5013106;28;20485;-73
2022/03/27 10:45:21;;;;;;;35.80;21.60;;;20.40;99.90;;;;;;5013102;28;20482;-73
2022/03/27 10:48:09;;;;;;;31.40;20.33;;;20.40;99.90;;;;;;5013399;28;20536;-73
2022/03/27 10:50:46;;;;;;;30.50;18.53;;;20.70;99.90;;;;;;5013037;28;20512;-73
2022/03/27 10:53:15;;;;;;;33.80;21.10;;;21.10;99.90;;;;;;5012640;28;20460;-73
2022/03/27 10:55:44;;;;;;;29.97;19.87;;;21.20;99.90;;;;;;5032011;28;20543;-73
2022/03/27 10:58:35;;;;;;;29.17;19.63;;;21.30;99.90;;;;;;5032479;28;20473;-73
2022/03/27 11:01:04;;;;;;;26.93;19.10;;;21.90;99.90;;;;;;5032573;28;20942;-73
2022/03/27 11:03:49;;;;;;;31.90;19.00;;;22.50;99.90;;;;;;5032131;28;20456;-73
2022/03/27 11:06:28;;;;;;;24.93;17.53;;;23.00;99.90;;;;;;5032788;28;20477;-73
2022/03/27 11:08:58;;;;;;;27.67;18.33;;;23.10;99.90;;;;;;5032455;28;20984;-73
2022/03/27 11:12:02;;;;;;;25.77;17.77;;;23.30;99.90;;;;;;5032343;28;20461;-73
2022/03/27 11:15:05;;;;;;;26.73;18.80;;;23.40;99.90;;;;;;5032406;28;20489;-73
2022/03/27 11:17:52;;;;;;;25.53;15.90;;;23.90;99.90;;;;;;5032234;28;20499;-73
2022/03/27 11:20:48;;;;;;;28.17;16.17;;;24.00;99.90;;;;;;5027650;28;20466;-73
2022/03/27 11:23:24;;;;;;;21.50;15.03;;;23.70;99.90;;;;;;5012602;28;20454;-73
2022/03/27 11:25:52;;;;;;;26.03;16.93;;;23.70;99.80;;;;;;5012587;28;20823;-73
2022/03/27 11:28:21;;;;;;;23.07;15.93;;;23.70;98.40;;;;;;5018835;28;20469;-73
2022/03/27 11:31:15;;;;;;;28.13;15.80;;;23.40;98.90;;;;;;5032417;28;20449;-73
2022/03/27 11:33:44;;;;;;;24.23;15.90;;;23.50;99.40;;;;;;5031197;28;20981;-73
2022/03/27 11:36:24;;;;;;;23.37;16.00;;;24.00;99.40;;;;;;5031654;28;20879;-73
2022/03/27 11:39:01;;;;;;;21.80;15.83;;;24.30;98.70;;;;;;5031673;28;20856;-74
2022/03/27 11:41:31;;;;;;;22.50;15.27;;;24.40;99.10;;;;;;5031820;28;20812;-73
2022/03/27 11:44:18;;;;;;;24.83;15.40;;;24.70;97.90;;;;;;5031785;28;20536;-73
2022/03/27 11:46:45;;;;;;;25.57;17.40;;;24.40;97.50;;;;;;5031680;28;20503;-74
2022/03/27 11:49:12;;;;;;;23.33;15.77;;;24.10;97.10;;;;;;5031714;28;20461;-73
2022/03/27 11:51:39;;;;;;;26.40;16.30;;;23.60;97.50;;;;;;5031525;28;21003;-73
2022/03/27 11:54:17;;;;;;;20.17;14.90;;;23.00;98.60;;;;;;5031099;28;20481;-74
2022/03/27 11:56:54;;;;;;;22.37;14.57;;;22.60;98.20;;;;;;5031706;28;20868;-73
2022/03/27 11:59:22;;;;;;;22.50;15.60;;;22.60;98.80;;;;;;5031620;28;20445;-73
2022/03/27 12:01:52;;;;;;;21.10;15.03;;;22.80;98.40;;;;;;5031682;28;20480;-73
2022/03/27 12:04:19;;;;;;;20.30;13.70;;;23.10;98.80;;;;;;5031271;28;20956;-73
2022/03/27 12:06:46;;;;;;;25.20;14.50;;;23.60;99.90;;;;;;5031552;28;20456;-73
2022/03/27 12:09:25;;;;;;;17.70;13.30;;;23.90;98.50;;;;;;5031768;28;20853;-74
2022/03/27 12:12:06;;;;;;;20.10;12.80;;;23.80;98.00;;;;;;5031545;28;20448;-73
2022/03/27 12:14:34;;;;;;;24.10;13.90;;;23.50;97.30;;;;;;5031314;28;20473;-73
2022/03/27 12:17:00;;;;;;;22.67;14.03;;;22.90;98.40;;;;;;5031574;28;20455;-74
2022/03/27 12:19:27;;;;;;;23.30;14.80;;;22.00;99.00;;;;;;5031161;28;20810;-73
2022/03/27 12:21:54;;;;;;;19.50;14.43;;;21.90;99.70;;;;;;5031199;28;20457;-73
2022/03/27 12:24:21;;;;;;;21.70;14.00;;;21.90;99.40;;;;;;5030956;28;20461;-73
2022/03/27 12:29:49;;;;;;;20.27;13.57;;;22.80;98.70;;;;;;5031032;28;20441;-73
2022/03/27 12:32:17;;;;;;;24.50;15.17;;;23.20;98.70;;;;;;5031086;28;20457;-73
2022/03/27 12:34:46;;;;;;;21.17;14.90;;;23.10;99.00;;;;;;5030282;28;20489;-73
2022/03/27 12:37:16;;;;;;;19.53;14.40;;;22.80;98.70;;;;;;5031324;28;20469;-74
2022/03/27 12:40:15;;;;;;;24.67;14.70;;;22.50;99.40;;;;;;5031105;28;20445;-73
2022/03/27 12:42:44;;;;;;;19.70;13.43;;;22.30;99.90;;;;;;4989398;28;20447;-73
2022/03/27 12:45:17;;;;;;;18.20;12.80;;;22.10;99.90;;;;;;4988730;28;20956;-74
2022/03/27 12:47:45;;;;;;;16.57;11.47;;;22.20;99.90;;;;;;5009400;28;20469;-73